Doris T — 5IM730 — position and weather

sailwx.info

Track history (hours):
 
Tides and Currents Weather Stations Pressure Air Temp Water Temp Dewpoint Dewpoint Depression Visibility Wind Speed Wind Dir Waves Ship Positions

Doris T

Last reported at 2017-Oct-17 02:06 UTC. Time now 2017-Oct-18 18:12 UTC.
Position N 25°34' W 079°47'.

Length 80 m; draft 4.7 m.

Type: Cargo ship. MMSI: 677093000.

Date/timePositionNaut miles runAvg speedWind from/ knotsBaromVisibWave heightAir tempDewpointWater temp
2017-Oct-17 02:06N 25°34' W 079°47'2 8.1
2017-Oct-17 01:53N 25°35' W 079°49'3 8.0
2017-Oct-17 01:30N 25°37' W 079°51'4 7.8
2017-Oct-17 01:00N 25°39' W 079°55'4 7.8
2017-Oct-17 00:30N 25°41' W 079°58'4 8.2
2017-Oct-17 00:00N 25°43' W 080°02'4 7.9
2017-Oct-16 23:30N 25°46' W 080°06'4 8.3
2017-Oct-16 23:00N 25°46' W 080°10'1 2.9
2017-Oct-16 22:30N 25°46' W 080°12'2 3.2
2017-Oct-16 22:00N 25°47' W 080°14'1 2.7
2017-Oct-16 21:29N 25°48' W 080°15'0 0.9
2017-Oct-16 20:56N 25°48' W 080°15'0 0.0
2017-Oct-16 20:29N 25°48' W 080°15'0 0.0
2017-Oct-16 19:59N 25°48' W 080°15'0 0.0
2017-Oct-16 19:29N 25°48' W 080°15'0 0.0
2017-Oct-16 18:59N 25°48' W 080°15'0 0.0
2017-Oct-16 18:26N 25°48' W 080°15'  
2017-Oct-13 14:38N 25°48' W 080°15'0 0.0
2017-Oct-13 14:29N 25°48' W 080°15'0 0.0
2017-Oct-13 13:59N 25°48' W 080°15'0 0.0
2017-Oct-13 13:29N 25°48' W 080°15'0 0.0
2017-Oct-13 12:59N 25°48' W 080°15'0 0.0
2017-Oct-13 12:29N 25°48' W 080°15'0 0.0
2017-Oct-13 11:54N 25°48' W 080°15'0 0.0
2017-Oct-13 11:26N 25°48' W 080°15'0 0.0
2017-Oct-13 10:59N 25°48' W 080°15'0 0.0
2017-Oct-13 10:29N 25°48' W 080°15'0 0.0
2017-Oct-13 09:59N 25°48' W 080°15'0 0.0
2017-Oct-13 09:29N 25°48' W 080°15'0 0.0
2017-Oct-13 08:53N 25°48' W 080°15'0 0.0
2017-Oct-13 08:29N 25°48' W 080°15'0 0.0
2017-Oct-13 07:50N 25°48' W 080°15'0 0.0
2017-Oct-13 07:29N 25°48' W 080°15'0 0.0
2017-Oct-13 06:59N 25°48' W 080°15'0 0.0
2017-Oct-13 06:26N 25°48' W 080°15'0 0.0
2017-Oct-13 05:56N 25°48' W 080°15'0 0.0
2017-Oct-13 05:29N 25°48' W 080°15'0 0.0
2017-Oct-13 04:56N 25°48' W 080°15'0 0.0
2017-Oct-13 04:29N 25°48' W 080°15'0 0.0
2017-Oct-13 03:59N 25°48' W 080°15'0 0.0
2017-Oct-13 03:29N 25°48' W 080°15'0 0.0
2017-Oct-13 02:59N 25°48' W 080°15'0 0.0
2017-Oct-13 02:29N 25°48' W 080°15'0 0.0
2017-Oct-13 01:59N 25°48' W 080°15'0 0.0
2017-Oct-13 01:29N 25°48' W 080°15'0 0.0
2017-Oct-13 00:59N 25°48' W 080°15'0 0.0
2017-Oct-13 00:29N 25°48' W 080°15'0 0.0
2017-Oct-12 23:59N 25°48' W 080°15'0 0.0
2017-Oct-12 23:23N 25°48' W 080°15'0 0.0
2017-Oct-12 22:59N 25°48' W 080°15'0 0.0
2017-Oct-12 22:26N 25°48' W 080°15'0 0.0
2017-Oct-12 21:59N 25°48' W 080°15'0 0.0
2017-Oct-12 21:29N 25°48' W 080°15'0 0.0
2017-Oct-12 20:59N 25°48' W 080°15'0 0.0
2017-Oct-12 20:23N 25°48' W 080°15'0 0.0
2017-Oct-12 19:59N 25°48' W 080°15'0 0.0
2017-Oct-12 19:29N 25°48' W 080°15'0 0.0
2017-Oct-12 18:59N 25°48' W 080°15'0 0.0
2017-Oct-12 18:26N 25°48' W 080°15'0 0.0
2017-Oct-12 17:59N 25°48' W 080°15'0 0.0
2017-Oct-12 17:29N 25°48' W 080°15'0 0.0
2017-Oct-12 16:56N 25°48' W 080°15'0 0.0
2017-Oct-12 16:29N 25°48' W 080°15'0 0.0
2017-Oct-12 15:53N 25°48' W 080°15'0 0.0
2017-Oct-12 15:29N 25°48' W 080°15'0 0.0
2017-Oct-12 14:59N 25°48' W 080°15'0 0.0
2017-Oct-12 14:26N 25°48' W 080°15'0 0.0
2017-Oct-12 13:59N 25°48' W 080°15'0 0.0
2017-Oct-12 13:29N 25°48' W 080°15'0 0.0
2017-Oct-12 12:59N 25°48' W 080°15'0 0.0
2017-Oct-12 12:26N 25°48' W 080°15'0 0.0
2017-Oct-12 11:53N 25°48' W 080°15'0 0.0
2017-Oct-12 11:26N 25°48' W 080°15'0 0.0
2017-Oct-12 10:59N 25°48' W 080°15'0 0.0
2017-Oct-12 10:26N 25°48' W 080°15'0 0.0
2017-Oct-12 09:59N 25°48' W 080°15'0 0.0
2017-Oct-12 09:29N 25°48' W 080°15'0 0.0
2017-Oct-12 08:59N 25°48' W 080°15'0 0.0
2017-Oct-12 08:29N 25°48' W 080°15'0 0.0
2017-Oct-12 07:59N 25°48' W 080°15'0 0.0
2017-Oct-12 07:29N 25°48' W 080°15'0 0.0
2017-Oct-12 06:59N 25°48' W 080°15'0 0.0
2017-Oct-12 06:29N 25°48' W 080°15'0 0.0
2017-Oct-12 05:59N 25°48' W 080°15'0 0.0
2017-Oct-12 05:29N 25°48' W 080°15'0 0.0
2017-Oct-12 04:59N 25°48' W 080°15'0 0.0
2017-Oct-12 04:29N 25°48' W 080°15'0 0.0
2017-Oct-12 03:59N 25°48' W 080°15'0 0.0
2017-Oct-12 03:29N 25°48' W 080°15'0 0.0
2017-Oct-12 02:59N 25°48' W 080°15'0 0.0
2017-Oct-12 02:29N 25°48' W 080°15'0 0.0
2017-Oct-12 01:56N 25°48' W 080°15'0 0.0
2017-Oct-12 01:29N 25°48' W 080°15'0 0.0
2017-Oct-12 00:59N 25°48' W 080°15'0 0.0
2017-Oct-12 00:23N 25°48' W 080°15'0 0.0
2017-Oct-11 23:59N 25°48' W 080°15'0 0.0
2017-Oct-11 23:29N 25°48' W 080°15'0 0.0
2017-Oct-11 22:56N 25°48' W 080°15'0 0.0
2017-Oct-11 22:29N 25°48' W 080°15'0 0.0
2017-Oct-11 21:59N 25°48' W 080°15'0 0.0
2017-Oct-11 21:29N 25°48' W 080°15'0 0.0
2017-Oct-11 20:59N 25°48' W 080°15'0 0.0
2017-Oct-11 20:29N 25°48' W 080°15'0 0.0
2017-Oct-11 19:59N 25°48' W 080°15'0 0.0
2017-Oct-11 19:29N 25°48' W 080°15'0 0.0
2017-Oct-11 18:59N 25°48' W 080°15'0 0.0
2017-Oct-11 18:29N 25°48' W 080°15'0 0.0
2017-Oct-11 17:59N 25°48' W 080°15'0 0.0
2017-Oct-11 17:29N 25°48' W 080°15'0 0.0
2017-Oct-11 16:59N 25°48' W 080°15'0 0.0
2017-Oct-10 23:59N 25°48' W 080°15'0 0.0
2017-Oct-10 23:29N 25°48' W 080°15'0 0.0
2017-Oct-10 22:59N 25°48' W 080°15'0 0.0
2017-Oct-10 22:26N 25°48' W 080°15'0 0.0
2017-Oct-10 21:59N 25°48' W 080°15'0 0.0
2017-Oct-10 21:29N 25°48' W 080°15'0 0.0
2017-Oct-10 20:59N 25°48' W 080°15'0 0.0
2017-Oct-10 20:29N 25°48' W 080°15'0 0.0
2017-Oct-10 19:59N 25°48' W 080°15'0 0.0
2017-Oct-10 19:29N 25°48' W 080°15'0 0.0
2017-Oct-10 18:53N 25°48' W 080°15'0 0.0
2017-Oct-10 18:29N 25°48' W 080°15'0 0.0
2017-Oct-10 17:59N 25°48' W 080°15'0 0.0
2017-Oct-10 17:23N 25°48' W 080°15'0 0.0
2017-Oct-10 16:47N 25°48' W 080°15'0 0.0
2017-Oct-10 16:26N 25°48' W 080°15'0 0.0
2017-Oct-10 15:59N 25°48' W 080°15'0 0.0
2017-Oct-10 15:29N 25°48' W 080°15'0 0.0
2017-Oct-10 14:59N 25°48' W 080°15'0 0.0
2017-Oct-10 13:59N 25°48' W 080°15'0 0.0
2017-Oct-10 13:29N 25°48' W 080°15'0 0.0
2017-Oct-10 12:59N 25°48' W 080°15'0 0.0
2017-Oct-10 12:29N 25°48' W 080°15'0 0.0
2017-Oct-10 11:53N 25°48' W 080°15'0 0.0
2017-Oct-10 11:29N 25°48' W 080°15'0 0.0
2017-Oct-10 10:56N 25°48' W 080°15'0 0.0
2017-Oct-10 10:29N 25°48' W 080°15'0 0.0
2017-Oct-10 09:59N 25°48' W 080°15'0 0.0
2017-Oct-10 09:29N 25°48' W 080°15'0 0.0
2017-Oct-10 08:59N 25°48' W 080°15'0 0.0
2017-Oct-10 08:23N 25°48' W 080°15'0 0.0
2017-Oct-10 07:59N 25°48' W 080°15'0 0.0
2017-Oct-10 07:29N 25°48' W 080°15'0 0.0
2017-Oct-10 06:59N 25°48' W 080°15'0 0.0
2017-Oct-10 06:29N 25°48' W 080°15'0 0.0
2017-Oct-10 05:59N 25°48' W 080°15'0 0.0
2017-Oct-10 05:26N 25°48' W 080°15'0 0.0
2017-Oct-10 04:59N 25°48' W 080°15'0 0.0
2017-Oct-10 04:29N 25°48' W 080°15'0 0.0
2017-Oct-10 03:59N 25°48' W 080°15'0 0.0
2017-Oct-10 03:29N 25°48' W 080°15'0 0.0
2017-Oct-10 02:59N 25°48' W 080°15'0 0.0
2017-Oct-10 02:29N 25°48' W 080°15'0 0.0
2017-Oct-10 01:56N 25°48' W 080°15'0 0.0
2017-Oct-10 01:29N 25°48' W 080°15'0 0.0
2017-Oct-10 00:53N 25°48' W 080°15'0 0.0
2017-Oct-10 00:29N 25°48' W 080°15'0 0.0
2017-Oct-09 23:53N 25°48' W 080°15'0 0.0
2017-Oct-09 23:29N 25°48' W 080°15'0 0.0
2017-Oct-09 22:59N 25°48' W 080°15'0 0.0
2017-Oct-09 22:26N 25°48' W 080°15'0 0.0
2017-Oct-09 21:59N 25°48' W 080°15'0 0.0
2017-Oct-09 21:20N 25°48' W 080°15'0 0.0
2017-Oct-09 20:59N 25°48' W 080°15'0 0.0
2017-Oct-09 20:29N 25°48' W 080°15'0 0.0
2017-Oct-09 19:56N 25°48' W 080°15'0 0.0
2017-Oct-09 19:29N 25°48' W 080°15'0 0.0
2017-Oct-09 18:59N 25°48' W 080°15'0 0.0
2017-Oct-09 18:29N 25°48' W 080°15'0 0.0
2017-Oct-09 17:59N 25°48' W 080°15'0 0.0
2017-Oct-09 17:29N 25°48' W 080°15'0 0.0
2017-Oct-09 16:59N 25°48' W 080°15'0 0.0
2017-Oct-09 16:20N 25°48' W 080°15'0 0.0
2017-Oct-09 15:59N 25°48' W 080°15'0 0.0
2017-Oct-09 15:29N 25°48' W 080°15'0 0.0
2017-Oct-09 14:56N 25°48' W 080°15'0 0.0
2017-Oct-09 14:29N 25°48' W 080°15'0 0.0
2017-Oct-09 13:38N 25°48' W 080°15'0 0.0
2017-Oct-09 13:26N 25°48' W 080°15'0 0.0
2017-Oct-09 12:59N 25°48' W 080°15'0 0.0
2017-Oct-09 12:29N 25°48' W 080°15'0 0.0
2017-Oct-09 11:56N 25°48' W 080°15'0 0.0
2017-Oct-09 11:29N 25°48' W 080°15'0 0.0
2017-Oct-09 10:56N 25°48' W 080°15'0 0.0
2017-Oct-09 10:29N 25°48' W 080°15'0 0.0
2017-Oct-09 09:59N 25°48' W 080°15'0 0.0
2017-Oct-09 09:29N 25°48' W 080°15'0 0.0
2017-Oct-09 08:56N 25°48' W 080°15'0 0.0
2017-Oct-09 08:29N 25°48' W 080°15'0 0.0
2017-Oct-09 07:59N 25°48' W 080°15'0 0.0
2017-Oct-09 07:26N 25°48' W 080°15'0 0.0
2017-Oct-09 06:59N 25°48' W 080°15'0 0.0
2017-Oct-09 06:29N 25°48' W 080°15'0 0.0
2017-Oct-09 05:56N 25°48' W 080°15'0 0.0
2017-Oct-09 05:29N 25°48' W 080°15'0 0.0
2017-Oct-09 04:53N 25°48' W 080°15'0 0.0
2017-Oct-09 04:29N 25°48' W 080°15'0 0.0
2017-Oct-09 03:56N 25°48' W 080°15'0 0.0
2017-Oct-09 03:29N 25°48' W 080°15'0 0.0
2017-Oct-09 02:50N 25°48' W 080°15'0 0.0
2017-Oct-09 02:29N 25°48' W 080°15'0 0.0
2017-Oct-09 01:59N 25°48' W 080°15'0 0.0
2017-Oct-09 01:23N 25°48' W 080°15'0 0.0
2017-Oct-09 00:56N 25°48' W 080°15'0 0.0
2017-Oct-09 00:29N 25°48' W 080°15'0 0.0
2017-Oct-08 23:56N 25°48' W 080°15'0 0.0
2017-Oct-08 23:29N 25°48' W 080°15'0 0.0
2017-Oct-08 22:59N 25°48' W 080°15'0 0.0
2017-Oct-08 22:29N 25°48' W 080°15'0 0.0
2017-Oct-08 21:56N 25°48' W 080°15'0 0.0
2017-Oct-08 21:26N 25°48' W 080°15'0 0.0
2017-Oct-08 20:59N 25°48' W 080°15'0 0.0
2017-Oct-08 20:29N 25°48' W 080°15'0 0.0
2017-Oct-08 19:59N 25°48' W 080°15'0 0.0
2017-Oct-08 19:29N 25°48' W 080°15'0 0.0
2017-Oct-08 18:59N 25°48' W 080°15'0 0.0
2017-Oct-08 18:29N 25°48' W 080°15'0 0.0
2017-Oct-08 17:59N 25°48' W 080°15'0 0.0
2017-Oct-08 17:29N 25°48' W 080°15'0 0.0
2017-Oct-08 16:59N 25°48' W 080°15'0 0.0
2017-Oct-08 16:29N 25°48' W 080°15'0 0.0
2017-Oct-08 15:59N 25°48' W 080°15'0 0.0
2017-Oct-08 15:29N 25°48' W 080°15'0 0.0
2017-Oct-08 14:59N 25°48' W 080°15'0 0.0
2017-Oct-08 14:29N 25°48' W 080°15'0 0.0
2017-Oct-08 13:59N 25°48' W 080°15'0 0.0
2017-Oct-08 13:29N 25°48' W 080°15'0 0.0
2017-Oct-08 12:59N 25°48' W 080°15'0 0.0
2017-Oct-08 12:29N 25°48' W 080°15'0 0.0
2017-Oct-08 11:59N 25°48' W 080°15'0 0.0
2017-Oct-08 11:29N 25°48' W 080°15'0 0.0
2017-Oct-08 10:59N 25°48' W 080°15'0 0.0
2017-Oct-08 10:29N 25°48' W 080°15'0 0.0
2017-Oct-08 09:56N 25°48' W 080°15'0 0.0
2017-Oct-08 09:26N 25°48' W 080°15'0 0.0
2017-Oct-08 08:59N 25°48' W 080°15'0 0.0
2017-Oct-08 08:29N 25°48' W 080°15'0 0.0
2017-Oct-08 07:59N 25°48' W 080°15'0 0.0
2017-Oct-08 07:29N 25°48' W 080°15'0 0.0
2017-Oct-08 06:59N 25°48' W 080°15'0 0.0
2017-Oct-08 06:29N 25°48' W 080°15'0 0.0
2017-Oct-08 05:59N 25°48' W 080°15'0 0.0
2017-Oct-08 05:29N 25°48' W 080°15'0 0.0
2017-Oct-08 04:59N 25°48' W 080°15'0 0.0
2017-Oct-08 04:29N 25°48' W 080°15'0 0.0
2017-Oct-08 03:59N 25°48' W 080°15'0 0.0
2017-Oct-08 03:26N 25°48' W 080°15'0 0.0
2017-Oct-08 02:59N 25°48' W 080°15'0 0.0
2017-Oct-08 02:29N 25°48' W 080°15'0 0.0
2017-Oct-08 01:59N 25°48' W 080°15'0 0.0
2017-Oct-08 01:29N 25°48' W 080°15'0 0.0
2017-Oct-08 00:59N 25°48' W 080°15'0 0.0
2017-Oct-08 00:29N 25°48' W 080°15'0 0.0
2017-Oct-07 23:59N 25°48' W 080°15'0 0.0
2017-Oct-07 23:29N 25°48' W 080°15'0 0.0
2017-Oct-07 22:56N 25°48' W 080°15'0 0.0
2017-Oct-07 22:29N 25°48' W 080°15'0 0.0
2017-Oct-07 21:59N 25°48' W 080°15'0 0.0
2017-Oct-07 21:29N 25°48' W 080°15'0 0.0
2017-Oct-07 20:59N 25°48' W 080°15'0 0.0
2017-Oct-07 20:26N 25°48' W 080°15'0 0.0
2017-Oct-07 19:59N 25°48' W 080°15'0 0.0
2017-Oct-07 19:29N 25°48' W 080°15'0 0.0
2017-Oct-07 18:59N 25°48' W 080°15'0 0.0
2017-Oct-07 18:29N 25°48' W 080°15'0 0.0
2017-Oct-07 17:59N 25°48' W 080°15'0 0.0
2017-Oct-07 17:29N 25°48' W 080°15'0 0.0
2017-Oct-07 16:59N 25°48' W 080°15'0 0.0
2017-Oct-07 16:29N 25°48' W 080°15'0 0.0
2017-Oct-07 15:59N 25°48' W 080°15'0 0.0
2017-Oct-07 15:29N 25°48' W 080°15'0 0.0
2017-Oct-07 14:59N 25°48' W 080°15'0 0.0
2017-Oct-07 14:29N 25°48' W 080°15'0 0.0
2017-Oct-07 13:59N 25°48' W 080°15'0 0.0
2017-Oct-07 13:29N 25°48' W 080°15'0 0.0
2017-Oct-07 12:59N 25°48' W 080°15'0 0.0
2017-Oct-07 12:29N 25°48' W 080°15'0 0.0
2017-Oct-07 11:59N 25°48' W 080°15'0 0.0
2017-Oct-07 11:29N 25°48' W 080°15'0 0.0
2017-Oct-07 10:59N 25°48' W 080°15'0 0.0
2017-Oct-07 10:29N 25°48' W 080°15'0 0.0
2017-Oct-07 09:50N 25°48' W 080°15'0 0.0
2017-Oct-07 09:29N 25°48' W 080°15'0 0.0
2017-Oct-07 08:59N 25°48' W 080°15'0 0.0
2017-Oct-07 08:29N 25°48' W 080°15'0 0.0
2017-Oct-07 07:53N 25°48' W 080°15'0 0.0
2017-Oct-07 07:29N 25°48' W 080°15'0 0.0
2017-Oct-07 06:56N 25°48' W 080°15'0 0.0
2017-Oct-07 06:29N 25°48' W 080°15'0 0.0
2017-Oct-07 05:56N 25°48' W 080°15'0 0.0
2017-Oct-07 05:26N 25°48' W 080°15'0 0.0
2017-Oct-07 04:56N 25°48' W 080°15'0 0.0
2017-Oct-07 04:29N 25°48' W 080°15'0 0.0
2017-Oct-07 03:59N 25°48' W 080°15'0 0.0
2017-Oct-07 03:29N 25°48' W 080°15'0 0.0
2017-Oct-07 02:56N 25°48' W 080°15'0 0.0
2017-Oct-07 02:29N 25°48' W 080°15'  
Track history (hours):
 
Tides and Currents Weather Stations Pressure Air Temp Water Temp Dewpoint Dewpoint Depression Visibility Wind Speed Wind Dir Waves Ship Positions

Doris T

Last reported at 2017-Oct-17 02:06 UTC. Time now 2017-Oct-18 18:12 UTC.
Position N 25°34' W 079°47'.

Length 80 m; draft 4.7 m.

Type: Cargo ship. MMSI: 677093000.

Date/timePositionNaut miles runAvg speedWind from/ knotsBaromVisibWave heightAir tempDewpointWater temp
2017-Oct-17 02:06N 25°34' W 079°47'2 8.1
2017-Oct-17 01:53N 25°35' W 079°49'3 8.0
2017-Oct-17 01:30N 25°37' W 079°51'4 7.8
2017-Oct-17 01:00N 25°39' W 079°55'4 7.8
2017-Oct-17 00:30N 25°41' W 079°58'4 8.2
2017-Oct-17 00:00N 25°43' W 080°02'4 7.9
2017-Oct-16 23:30N 25°46' W 080°06'4 8.3
2017-Oct-16 23:00N 25°46' W 080°10'1 2.9
2017-Oct-16 22:30N 25°46' W 080°12'2 3.2
2017-Oct-16 22:00N 25°47' W 080°14'1 2.7
2017-Oct-16 21:29N 25°48' W 080°15'0 0.9
2017-Oct-16 20:56N 25°48' W 080°15'0 0.0
2017-Oct-16 20:29N 25°48' W 080°15'0 0.0
2017-Oct-16 19:59N 25°48' W 080°15'0 0.0
2017-Oct-16 19:29N 25°48' W 080°15'0 0.0
2017-Oct-16 18:59N 25°48' W 080°15'0 0.0
2017-Oct-16 18:26N 25°48' W 080°15'  
2017-Oct-13 14:38N 25°48' W 080°15'0 0.0
2017-Oct-13 14:29N 25°48' W 080°15'0 0.0
2017-Oct-13 13:59N 25°48' W 080°15'0 0.0
2017-Oct-13 13:29N 25°48' W 080°15'0 0.0
2017-Oct-13 12:59N 25°48' W 080°15'0 0.0
2017-Oct-13 12:29N 25°48' W 080°15'0 0.0
2017-Oct-13 11:54N 25°48' W 080°15'0 0.0
2017-Oct-13 11:26N 25°48' W 080°15'0 0.0
2017-Oct-13 10:59N 25°48' W 080°15'0 0.0
2017-Oct-13 10:29N 25°48' W 080°15'0 0.0
2017-Oct-13 09:59N 25°48' W 080°15'0 0.0
2017-Oct-13 09:29N 25°48' W 080°15'0 0.0
2017-Oct-13 08:53N 25°48' W 080°15'0 0.0
2017-Oct-13 08:29N 25°48' W 080°15'0 0.0
2017-Oct-13 07:50N 25°48' W 080°15'0 0.0
2017-Oct-13 07:29N 25°48' W 080°15'0 0.0
2017-Oct-13 06:59N 25°48' W 080°15'0 0.0
2017-Oct-13 06:26N 25°48' W 080°15'0 0.0
2017-Oct-13 05:56N 25°48' W 080°15'0 0.0
2017-Oct-13 05:29N 25°48' W 080°15'0 0.0
2017-Oct-13 04:56N 25°48' W 080°15'0 0.0
2017-Oct-13 04:29N 25°48' W 080°15'0 0.0
2017-Oct-13 03:59N 25°48' W 080°15'0 0.0
2017-Oct-13 03:29N 25°48' W 080°15'0 0.0
2017-Oct-13 02:59N 25°48' W 080°15'0 0.0
2017-Oct-13 02:29N 25°48' W 080°15'0 0.0
2017-Oct-13 01:59N 25°48' W 080°15'0 0.0
2017-Oct-13 01:29N 25°48' W 080°15'0 0.0
2017-Oct-13 00:59N 25°48' W 080°15'0 0.0
2017-Oct-13 00:29N 25°48' W 080°15'0 0.0
2017-Oct-12 23:59N 25°48' W 080°15'0 0.0
2017-Oct-12 23:23N 25°48' W 080°15'0 0.0
2017-Oct-12 22:59N 25°48' W 080°15'0 0.0
2017-Oct-12 22:26N 25°48' W 080°15'0 0.0
2017-Oct-12 21:59N 25°48' W 080°15'0 0.0
2017-Oct-12 21:29N 25°48' W 080°15'0 0.0
2017-Oct-12 20:59N 25°48' W 080°15'0 0.0
2017-Oct-12 20:23N 25°48' W 080°15'0 0.0
2017-Oct-12 19:59N 25°48' W 080°15'0 0.0
2017-Oct-12 19:29N 25°48' W 080°15'0 0.0
2017-Oct-12 18:59N 25°48' W 080°15'0 0.0
2017-Oct-12 18:26N 25°48' W 080°15'0 0.0
2017-Oct-12 17:59N 25°48' W 080°15'0 0.0
2017-Oct-12 17:29N 25°48' W 080°15'0 0.0
2017-Oct-12 16:56N 25°48' W 080°15'0 0.0
2017-Oct-12 16:29N 25°48' W 080°15'0 0.0
2017-Oct-12 15:53N 25°48' W 080°15'0 0.0
2017-Oct-12 15:29N 25°48' W 080°15'0 0.0
2017-Oct-12 14:59N 25°48' W 080°15'0 0.0
2017-Oct-12 14:26N 25°48' W 080°15'0 0.0
2017-Oct-12 13:59N 25°48' W 080°15'0 0.0
2017-Oct-12 13:29N 25°48' W 080°15'0 0.0
2017-Oct-12 12:59N 25°48' W 080°15'0 0.0
2017-Oct-12 12:26N 25°48' W 080°15'0 0.0
2017-Oct-12 11:53N 25°48' W 080°15'0 0.0
2017-Oct-12 11:26N 25°48' W 080°15'0 0.0
2017-Oct-12 10:59N 25°48' W 080°15'0 0.0
2017-Oct-12 10:26N 25°48' W 080°15'0 0.0
2017-Oct-12 09:59N 25°48' W 080°15'0 0.0
2017-Oct-12 09:29N 25°48' W 080°15'0 0.0
2017-Oct-12 08:59N 25°48' W 080°15'0 0.0
2017-Oct-12 08:29N 25°48' W 080°15'0 0.0
2017-Oct-12 07:59N 25°48' W 080°15'0 0.0
2017-Oct-12 07:29N 25°48' W 080°15'0 0.0
2017-Oct-12 06:59N 25°48' W 080°15'0 0.0
2017-Oct-12 06:29N 25°48' W 080°15'0 0.0
2017-Oct-12 05:59N 25°48' W 080°15'0 0.0
2017-Oct-12 05:29N 25°48' W 080°15'0 0.0
2017-Oct-12 04:59N 25°48' W 080°15'0 0.0
2017-Oct-12 04:29N 25°48' W 080°15'0 0.0
2017-Oct-12 03:59N 25°48' W 080°15'0 0.0
2017-Oct-12 03:29N 25°48' W 080°15'0 0.0
2017-Oct-12 02:59N 25°48' W 080°15'0 0.0
2017-Oct-12 02:29N 25°48' W 080°15'0 0.0
2017-Oct-12 01:56N 25°48' W 080°15'0 0.0
2017-Oct-12 01:29N 25°48' W 080°15'0 0.0
2017-Oct-12 00:59N 25°48' W 080°15'0 0.0
2017-Oct-12 00:23N 25°48' W 080°15'0 0.0
2017-Oct-11 23:59N 25°48' W 080°15'0 0.0
2017-Oct-11 23:29N 25°48' W 080°15'0 0.0
2017-Oct-11 22:56N 25°48' W 080°15'0 0.0
2017-Oct-11 22:29N 25°48' W 080°15'0 0.0
2017-Oct-11 21:59N 25°48' W 080°15'0 0.0
2017-Oct-11 21:29N 25°48' W 080°15'0 0.0
2017-Oct-11 20:59N 25°48' W 080°15'0 0.0
2017-Oct-11 20:29N 25°48' W 080°15'0 0.0
2017-Oct-11 19:59N 25°48' W 080°15'0 0.0
2017-Oct-11 19:29N 25°48' W 080°15'0 0.0
2017-Oct-11 18:59N 25°48' W 080°15'0 0.0
2017-Oct-11 18:29N 25°48' W 080°15'0 0.0
2017-Oct-11 17:59N 25°48' W 080°15'0 0.0
2017-Oct-11 17:29N 25°48' W 080°15'0 0.0
2017-Oct-11 16:59N 25°48' W 080°15'0 0.0
2017-Oct-10 23:59N 25°48' W 080°15'0 0.0
2017-Oct-10 23:29N 25°48' W 080°15'0 0.0
2017-Oct-10 22:59N 25°48' W 080°15'0 0.0
2017-Oct-10 22:26N 25°48' W 080°15'0 0.0
2017-Oct-10 21:59N 25°48' W 080°15'0 0.0
2017-Oct-10 21:29N 25°48' W 080°15'0 0.0
2017-Oct-10 20:59N 25°48' W 080°15'0 0.0
2017-Oct-10 20:29N 25°48' W 080°15'0 0.0
2017-Oct-10 19:59N 25°48' W 080°15'0 0.0
2017-Oct-10 19:29N 25°48' W 080°15'0 0.0
2017-Oct-10 18:53N 25°48' W 080°15'0 0.0
2017-Oct-10 18:29N 25°48' W 080°15'0 0.0
2017-Oct-10 17:59N 25°48' W 080°15'0 0.0
2017-Oct-10 17:23N 25°48' W 080°15'0 0.0
2017-Oct-10 16:47N 25°48' W 080°15'0 0.0
2017-Oct-10 16:26N 25°48' W 080°15'0 0.0
2017-Oct-10 15:59N 25°48' W 080°15'0 0.0
2017-Oct-10 15:29N 25°48' W 080°15'0 0.0
2017-Oct-10 14:59N 25°48' W 080°15'0 0.0
2017-Oct-10 13:59N 25°48' W 080°15'0 0.0
2017-Oct-10 13:29N 25°48' W 080°15'0 0.0
2017-Oct-10 12:59N 25°48' W 080°15'0 0.0
2017-Oct-10 12:29N 25°48' W 080°15'0 0.0
2017-Oct-10 11:53N 25°48' W 080°15'0 0.0
2017-Oct-10 11:29N 25°48' W 080°15'0 0.0
2017-Oct-10 10:56N 25°48' W 080°15'0 0.0
2017-Oct-10 10:29N 25°48' W 080°15'0 0.0
2017-Oct-10 09:59N 25°48' W 080°15'0 0.0
2017-Oct-10 09:29N 25°48' W 080°15'0 0.0
2017-Oct-10 08:59N 25°48' W 080°15'0 0.0
2017-Oct-10 08:23N 25°48' W 080°15'0 0.0
2017-Oct-10 07:59N 25°48' W 080°15'0 0.0
2017-Oct-10 07:29N 25°48' W 080°15'0 0.0
2017-Oct-10 06:59N 25°48' W 080°15'0 0.0
2017-Oct-10 06:29N 25°48' W 080°15'0 0.0
2017-Oct-10 05:59N 25°48' W 080°15'0 0.0
2017-Oct-10 05:26N 25°48' W 080°15'0 0.0
2017-Oct-10 04:59N 25°48' W 080°15'0 0.0
2017-Oct-10 04:29N 25°48' W 080°15'0 0.0
2017-Oct-10 03:59N 25°48' W 080°15'0 0.0
2017-Oct-10 03:29N 25°48' W 080°15'0 0.0
2017-Oct-10 02:59N 25°48' W 080°15'0 0.0
2017-Oct-10 02:29N 25°48' W 080°15'0 0.0
2017-Oct-10 01:56N 25°48' W 080°15'0 0.0
2017-Oct-10 01:29N 25°48' W 080°15'0 0.0
2017-Oct-10 00:53N 25°48' W 080°15'0 0.0
2017-Oct-10 00:29N 25°48' W 080°15'0 0.0
2017-Oct-09 23:53N 25°48' W 080°15'0 0.0
2017-Oct-09 23:29N 25°48' W 080°15'0 0.0
2017-Oct-09 22:59N 25°48' W 080°15'0 0.0
2017-Oct-09 22:26N 25°48' W 080°15'0 0.0
2017-Oct-09 21:59N 25°48' W 080°15'0 0.0
2017-Oct-09 21:20N 25°48' W 080°15'0 0.0
2017-Oct-09 20:59N 25°48' W 080°15'0 0.0
2017-Oct-09 20:29N 25°48' W 080°15'0 0.0
2017-Oct-09 19:56N 25°48' W 080°15'0 0.0
2017-Oct-09 19:29N 25°48' W 080°15'0 0.0
2017-Oct-09 18:59N 25°48' W 080°15'0 0.0
2017-Oct-09 18:29N 25°48' W 080°15'0 0.0
2017-Oct-09 17:59N 25°48' W 080°15'0 0.0
2017-Oct-09 17:29N 25°48' W 080°15'0 0.0
2017-Oct-09 16:59N 25°48' W 080°15'0 0.0
2017-Oct-09 16:20N 25°48' W 080°15'0 0.0
2017-Oct-09 15:59N 25°48' W 080°15'0 0.0
2017-Oct-09 15:29N 25°48' W 080°15'0 0.0
2017-Oct-09 14:56N 25°48' W 080°15'0 0.0
2017-Oct-09 14:29N 25°48' W 080°15'0 0.0
2017-Oct-09 13:38N 25°48' W 080°15'0 0.0
2017-Oct-09 13:26N 25°48' W 080°15'0 0.0
2017-Oct-09 12:59N 25°48' W 080°15'0 0.0
2017-Oct-09 12:29N 25°48' W 080°15'0 0.0
2017-Oct-09 11:56N 25°48' W 080°15'0 0.0
2017-Oct-09 11:29N 25°48' W 080°15'0 0.0
2017-Oct-09 10:56N 25°48' W 080°15'0 0.0
2017-Oct-09 10:29N 25°48' W 080°15'0 0.0
2017-Oct-09 09:59N 25°48' W 080°15'0 0.0
2017-Oct-09 09:29N 25°48' W 080°15'0 0.0
2017-Oct-09 08:56N 25°48' W 080°15'0 0.0
2017-Oct-09 08:29N 25°48' W 080°15'0 0.0
2017-Oct-09 07:59N 25°48' W 080°15'0 0.0
2017-Oct-09 07:26N 25°48' W 080°15'0 0.0
2017-Oct-09 06:59N 25°48' W 080°15'0 0.0
2017-Oct-09 06:29N 25°48' W 080°15'0 0.0
2017-Oct-09 05:56N 25°48' W 080°15'0 0.0
2017-Oct-09 05:29N 25°48' W 080°15'0 0.0
2017-Oct-09 04:53N 25°48' W 080°15'0 0.0
2017-Oct-09 04:29N 25°48' W 080°15'0 0.0
2017-Oct-09 03:56N 25°48' W 080°15'0 0.0
2017-Oct-09 03:29N 25°48' W 080°15'0 0.0
2017-Oct-09 02:50N 25°48' W 080°15'0 0.0
2017-Oct-09 02:29N 25°48' W 080°15'0 0.0
2017-Oct-09 01:59N 25°48' W 080°15'0 0.0
2017-Oct-09 01:23N 25°48' W 080°15'0 0.0
2017-Oct-09 00:56N 25°48' W 080°15'0 0.0
2017-Oct-09 00:29N 25°48' W 080°15'0 0.0
2017-Oct-08 23:56N 25°48' W 080°15'0 0.0
2017-Oct-08 23:29N 25°48' W 080°15'0 0.0
2017-Oct-08 22:59N 25°48' W 080°15'0 0.0
2017-Oct-08 22:29N 25°48' W 080°15'0 0.0
2017-Oct-08 21:56N 25°48' W 080°15'0 0.0
2017-Oct-08 21:26N 25°48' W 080°15'0 0.0
2017-Oct-08 20:59N 25°48' W 080°15'0 0.0
2017-Oct-08 20:29N 25°48' W 080°15'0 0.0
2017-Oct-08 19:59N 25°48' W 080°15'0 0.0
2017-Oct-08 19:29N 25°48' W 080°15'0 0.0
2017-Oct-08 18:59N 25°48' W 080°15'0 0.0
2017-Oct-08 18:29N 25°48' W 080°15'0 0.0
2017-Oct-08 17:59N 25°48' W 080°15'0 0.0
2017-Oct-08 17:29N 25°48' W 080°15'0 0.0
2017-Oct-08 16:59N 25°48' W 080°15'0 0.0
2017-Oct-08 16:29N 25°48' W 080°15'0 0.0
2017-Oct-08 15:59N 25°48' W 080°15'0 0.0
2017-Oct-08 15:29N 25°48' W 080°15'0 0.0
2017-Oct-08 14:59N 25°48' W 080°15'0 0.0
2017-Oct-08 14:29N 25°48' W 080°15'0 0.0
2017-Oct-08 13:59N 25°48' W 080°15'0 0.0
2017-Oct-08 13:29N 25°48' W 080°15'0 0.0
2017-Oct-08 12:59N 25°48' W 080°15'0 0.0
2017-Oct-08 12:29N 25°48' W 080°15'0 0.0
2017-Oct-08 11:59N 25°48' W 080°15'0 0.0
2017-Oct-08 11:29N 25°48' W 080°15'0 0.0
2017-Oct-08 10:59N 25°48' W 080°15'0 0.0
2017-Oct-08 10:29N 25°48' W 080°15'0 0.0
2017-Oct-08 09:56N 25°48' W 080°15'0 0.0
2017-Oct-08 09:26N 25°48' W 080°15'0 0.0
2017-Oct-08 08:59N 25°48' W 080°15'0 0.0
2017-Oct-08 08:29N 25°48' W 080°15'0 0.0
2017-Oct-08 07:59N 25°48' W 080°15'0 0.0
2017-Oct-08 07:29N 25°48' W 080°15'0 0.0
2017-Oct-08 06:59N 25°48' W 080°15'0 0.0
2017-Oct-08 06:29N 25°48' W 080°15'0 0.0
2017-Oct-08 05:59N 25°48' W 080°15'0 0.0
2017-Oct-08 05:29N 25°48' W 080°15'0 0.0
2017-Oct-08 04:59N 25°48' W 080°15'0 0.0
2017-Oct-08 04:29N 25°48' W 080°15'0 0.0
2017-Oct-08 03:59N 25°48' W 080°15'0 0.0
2017-Oct-08 03:26N 25°48' W 080°15'0 0.0
2017-Oct-08 02:59N 25°48' W 080°15'0 0.0
2017-Oct-08 02:29N 25°48' W 080°15'0 0.0
2017-Oct-08 01:59N 25°48' W 080°15'0 0.0
2017-Oct-08 01:29N 25°48' W 080°15'0 0.0
2017-Oct-08 00:59N 25°48' W 080°15'0 0.0
2017-Oct-08 00:29N 25°48' W 080°15'0 0.0
2017-Oct-07 23:59N 25°48' W 080°15'0 0.0
2017-Oct-07 23:29N 25°48' W 080°15'0 0.0
2017-Oct-07 22:56N 25°48' W 080°15'0 0.0
2017-Oct-07 22:29N 25°48' W 080°15'0 0.0
2017-Oct-07 21:59N 25°48' W 080°15'0 0.0
2017-Oct-07 21:29N 25°48' W 080°15'0 0.0
2017-Oct-07 20:59N 25°48' W 080°15'0 0.0
2017-Oct-07 20:26N 25°48' W 080°15'0 0.0
2017-Oct-07 19:59N 25°48' W 080°15'0 0.0
2017-Oct-07 19:29N 25°48' W 080°15'0 0.0
2017-Oct-07 18:59N 25°48' W 080°15'0 0.0
2017-Oct-07 18:29N 25°48' W 080°15'0 0.0
2017-Oct-07 17:59N 25°48' W 080°15'0 0.0
2017-Oct-07 17:29N 25°48' W 080°15'0 0.0
2017-Oct-07 16:59N 25°48' W 080°15'0 0.0
2017-Oct-07 16:29N 25°48' W 080°15'0 0.0
2017-Oct-07 15:59N 25°48' W 080°15'0 0.0
2017-Oct-07 15:29N 25°48' W 080°15'0 0.0
2017-Oct-07 14:59N 25°48' W 080°15'0 0.0
2017-Oct-07 14:29N 25°48' W 080°15'0 0.0
2017-Oct-07 13:59N 25°48' W 080°15'0 0.0
2017-Oct-07 13:29N 25°48' W 080°15'0 0.0
2017-Oct-07 12:59N 25°48' W 080°15'0 0.0
2017-Oct-07 12:29N 25°48' W 080°15'0 0.0
2017-Oct-07 11:59N 25°48' W 080°15'0 0.0
2017-Oct-07 11:29N 25°48' W 080°15'0 0.0
2017-Oct-07 10:59N 25°48' W 080°15'0 0.0
2017-Oct-07 10:29N 25°48' W 080°15'0 0.0
2017-Oct-07 09:50N 25°48' W 080°15'0 0.0
2017-Oct-07 09:29N 25°48' W 080°15'0 0.0
2017-Oct-07 08:59N 25°48' W 080°15'0 0.0
2017-Oct-07 08:29N 25°48' W 080°15'0 0.0
2017-Oct-07 07:53N 25°48' W 080°15'0 0.0
2017-Oct-07 07:29N 25°48' W 080°15'0 0.0
2017-Oct-07 06:56N 25°48' W 080°15'0 0.0
2017-Oct-07 06:29N 25°48' W 080°15'0 0.0
2017-Oct-07 05:56N 25°48' W 080°15'0 0.0
2017-Oct-07 05:26N 25°48' W 080°15'0 0.0
2017-Oct-07 04:56N 25°48' W 080°15'0 0.0
2017-Oct-07 04:29N 25°48' W 080°15'0 0.0
2017-Oct-07 03:59N 25°48' W 080°15'0 0.0
2017-Oct-07 03:29N 25°48' W 080°15'0 0.0
2017-Oct-07 02:56N 25°48' W 080°15'0 0.0
2017-Oct-07 02:29N 25°48' W 080°15'  

Dump ship's entire track history